sensor_id;sensor_type;location;lat;lon;timestamp;pressure;altitude;pressure_sealevel;temperature;humidity
69593;BME280;56796;50.122;14.468;2023-04-23T00:00:44;973.06;;;14.75;64.26
69593;BME280;56796;50.122;14.468;2023-04-23T00:20:10;972.87;;;14.61;65.15
69593;BME280;56796;50.122;14.468;2023-04-23T00:39:36;972.71;;;14.38;65.91
69593;BME280;56796;50.122;14.468;2023-04-23T00:59:02;972.67;;;14.31;66.28
69593;BME280;56796;50.122;14.468;2023-04-23T01:18:27;972.7;;;14.26;66.5
69593;BME280;56796;50.122;14.468;2023-04-23T01:37:56;972.62;;;14.17;66.84
69593;BME280;56796;50.122;14.468;2023-04-23T01:57:15;972.64;;;13.97;67.7
69593;BME280;56796;50.122;14.468;2023-04-23T02:16:40;972.67;;;13.71;68.93
69593;BME280;56796;50.122;14.468;2023-04-23T02:36:07;972.68;;;13.54;69.58
69593;BME280;56796;50.122;14.468;2023-04-23T02:55:33;972.72;;;13.44;70.68
69593;BME280;56796;50.122;14.468;2023-04-23T03:14:58;972.65;;;13.26;71.86
69593;BME280;56796;50.122;14.468;2023-04-23T03:34:25;972.79;;;13.15;72.74
69593;BME280;56796;50.122;14.468;2023-04-23T03:53:51;972.75;;;12.96;73.77
69593;BME280;56796;50.122;14.468;2023-04-23T04:13:17;972.42;;;13;74.9
69593;BME280;56796;50.122;14.468;2023-04-23T04:32:43;972.32;;;12.95;77.63
69593;BME280;56796;50.122;14.468;2023-04-23T04:52:09;972.46;;;13.21;75.91
69593;BME280;56796;50.122;14.468;2023-04-23T05:11:37;972.68;;;13.04;79.68
69593;BME280;56796;50.122;14.468;2023-04-23T05:31:06;972.86;;;13.51;79.37
69593;BME280;56796;50.122;14.468;2023-04-23T05:50:27;972.88;;;14.43;74.8
69593;BME280;56796;50.122;14.468;2023-04-23T06:09:55;972.86;;;14.65;74.68
69593;BME280;56796;50.122;14.468;2023-04-23T06:29:26;972.82;;;15.61;72.18
69593;BME280;56796;50.122;14.468;2023-04-23T06:48:55;972.8;;;15.86;71.47
69593;BME280;56796;50.122;14.468;2023-04-23T07:08:22;972.81;;;15.79;72.07
69593;BME280;56796;50.122;14.468;2023-04-23T07:27:50;972.76;;;16.54;69.47
69593;BME280;56796;50.122;14.468;2023-04-23T07:47:19;972.82;;;17.26;67.52
69593;BME280;56796;50.122;14.468;2023-04-23T08:06:47;972.94;;;17.45;65.64
69593;BME280;56796;50.122;14.468;2023-04-23T08:26:13;973.07;;;17.45;65.03
69593;BME280;56796;50.122;14.468;2023-04-23T08:45:41;973.11;;;18.74;58.93
69593;BME280;56796;50.122;14.468;2023-04-23T09:05:10;973.22;;;18.25;59.91
69593;BME280;56796;50.122;14.468;2023-04-23T09:24:36;973.41;;;17.54;62.45
69593;BME280;56796;50.122;14.468;2023-04-23T09:44:01;973.44;;;17.33;63.32
69593;BME280;56796;50.122;14.468;2023-04-23T10:03:27;973.51;;;17.51;63.77
69593;BME280;56796;50.122;14.468;2023-04-23T10:22:54;973.62;;;17.15;67.09
69593;BME280;56796;50.122;14.468;2023-04-23T10:42:20;973.53;;;16.76;70.9
69593;BME280;56796;50.122;14.468;2023-04-23T11:01:46;973.37;;;16.87;70.45
69593;BME280;56796;50.122;14.468;2023-04-23T11:21:11;973.32;;;16.39;71.46
69593;BME280;56796;50.122;14.468;2023-04-23T11:40:37;973.03;;;16.7;72.75
69593;BME280;56796;50.122;14.468;2023-04-23T12:19:28;973.29;;;16.04;75.96
69593;BME280;56796;50.122;14.468;2023-04-23T12:38:54;973.3;;;16.25;75.91
69593;BME280;56796;50.122;14.468;2023-04-23T12:58:20;973.16;;;16.48;73
69593;BME280;56796;50.122;14.468;2023-04-23T13:17:53;973.07;;;17.43;69.83
69593;BME280;56796;50.122;14.468;2023-04-23T13:37:13;972.85;;;17.67;68.25
69593;BME280;56796;50.122;14.468;2023-04-23T13:56:41;972.58;;;17.26;67.76
69593;BME280;56796;50.122;14.468;2023-04-23T14:16:06;972.55;;;16.18;74.12
69593;BME280;56796;50.122;14.468;2023-04-23T14:35:30;972.37;;;16.08;77.35
69593;BME280;56796;50.122;14.468;2023-04-23T14:54:56;972.22;;;16;78.85
69593;BME280;56796;50.122;14.468;2023-04-23T15:14:23;971.82;;;15.84;79.06
69593;BME280;56796;50.122;14.468;2023-04-23T15:33:48;971.76;;;15.73;78.63
69593;BME280;56796;50.122;14.468;2023-04-23T15:53:13;971.64;;;15.46;79.54
69593;BME280;56796;50.122;14.468;2023-04-23T16:12:39;971.4;;;15.62;79.94
69593;BME280;56796;50.122;14.468;2023-04-23T16:32:06;971.16;;;15.49;79.93
69593;BME280;56796;50.122;14.468;2023-04-23T16:51:34;971.08;;;15.56;79.36
69593;BME280;56796;50.122;14.468;2023-04-23T17:10:57;970.9;;;15.33;80.46
69593;BME280;56796;50.122;14.468;2023-04-23T17:30:15;970.68;;;15.25;81.41
69593;BME280;56796;50.122;14.468;2023-04-23T17:49:40;970.5;;;14.91;82.51
69593;BME280;56796;50.122;14.468;2023-04-23T18:09:05;970.55;;;14.55;83.54
69593;BME280;56796;50.122;14.468;2023-04-23T18:28:30;970.43;;;14.45;82.88
69593;BME280;56796;50.122;14.468;2023-04-23T18:47:56;970.38;;;14.24;83.1
69593;BME280;56796;50.122;14.468;2023-04-23T19:07:21;970.46;;;14.05;83.38
69593;BME280;56796;50.122;14.468;2023-04-23T19:26:47;970.1;;;13.91;83.5
69593;BME280;56796;50.122;14.468;2023-04-23T19:46:12;969.98;;;13.73;84.04
69593;BME280;56796;50.122;14.468;2023-04-23T20:05:37;969.93;;;13.46;85.39
69593;BME280;56796;50.122;14.468;2023-04-23T20:25:04;969.78;;;13.21;86.08
69593;BME280;56796;50.122;14.468;2023-04-23T20:44:28;969.62;;;13.29;85.44
69593;BME280;56796;50.122;14.468;2023-04-23T21:03:53;969.5;;;13.32;85.29
69593;BME280;56796;50.122;14.468;2023-04-23T21:23:20;969.22;;;13.38;84.97
69593;BME280;56796;50.122;14.468;2023-04-23T21:42:47;969.18;;;13.04;85.77
69593;BME280;56796;50.122;14.468;2023-04-23T22:02:13;968.99;;;12.75;87.33
69593;BME280;56796;50.122;14.468;2023-04-23T22:21:40;968.71;;;12.41;88.82
69593;BME280;56796;50.122;14.468;2023-04-23T22:40:57;968.48;;;12.36;89.53
69593;BME280;56796;50.122;14.468;2023-04-23T23:00:22;968.44;;;12.21;90.56
69593;BME280;56796;50.122;14.468;2023-04-23T23:19:47;968.37;;;12;91.67
69593;BME280;56796;50.122;14.468;2023-04-23T23:39:13;969.15;;;10.93;94.53
69593;BME280;56796;50.122;14.468;2023-04-23T23:58:38;968.78;;;11.09;95.27
